»·PEaware :: N346CP NONE-KOXR

N346CP :: NONE-KOXR

FLIGHT INFORMATION

Flight Status: Arrived
Operator: Privately registered:
United States
More flights under this callsign
Pilot: Andrew G. (414)
Aircraft: CESSNA 172 SKYHAWK
(C172)
More flights by this aircraft type
Origin: NONE
Destination: KOXR Oxnard
United States
More flights between these airports :: More routes between these airports
Route:
File this flight plan on PilotEdge
Remarks:
Altitude:
(Current/Filed)
0ft
Speed:
(Current/Filed)
0kts
Departed: 30-Jan-21 04:47 PM
Arrived: 30-Jan-21 05:23 PM
Distance/Time
Traveled:
Not Available
Distance/Time
To Go:
Arrived

Flight Plot

Page will automatically refresh every two minutes.

Flight plan parsing failed; only flown route is shown


Map Options




Map Legend


Flown Route
Filed Route
Departure Airport
Arrival Airport
Navaid (VOR, NDB)
Fix

Horizontal Profiles

Position Reports

Time Latitude Longitude Heading Altitude Ground
Speed
30-Jan-21 16:45 33.735869 -118.224252 123 6528ft 108kts
30-Jan-21 16:46 33.716827 -118.239577 288 6453ft 126kts
30-Jan-21 16:47 33.741528 -118.236664 9 6465ft 114kts
30-Jan-21 16:48 33.767771 -118.260624 336 6462ft 114kts
30-Jan-21 16:49 33.794007 -118.283970 323 6538ft 123kts
30-Jan-21 16:50 33.820643 -118.310678 322 6540ft 126kts
30-Jan-21 16:51 33.847071 -118.338963 321 6540ft 127kts
30-Jan-21 16:52 33.873426 -118.367278 321 6538ft 124kts
30-Jan-21 16:53 33.898949 -118.394938 321 6539ft 122kts
30-Jan-21 16:54 33.924409 -118.422551 321 6541ft 124kts
30-Jan-21 16:55 33.952003 -118.447782 337 6535ft 123kts
30-Jan-21 16:56 33.983718 -118.463239 344 6531ft 121kts
30-Jan-21 16:57 34.015388 -118.476328 344 6530ft 120kts
30-Jan-21 16:58 34.047006 -118.489452 344 6530ft 120kts
30-Jan-21 16:59 34.078639 -118.502577 344 6527ft 120kts
30-Jan-21 17:00 34.110427 -118.515750 344 6522ft 120kts
30-Jan-21 17:01 34.142342 -118.528660 344 6518ft 121kts
30-Jan-21 17:02 34.174471 -118.541587 344 6514ft 123kts
30-Jan-21 17:03 34.207034 -118.555200 331 6506ft 123kts
30-Jan-21 17:04 34.209170 -118.594491 251 6520ft 127kts
30-Jan-21 17:05 34.204393 -118.636873 269 6519ft 127kts
30-Jan-21 17:06 34.204159 -118.679068 269 6519ft 128kts
30-Jan-21 17:07 34.203977 -118.721975 269 6524ft 126kts
30-Jan-21 17:08 34.203775 -118.764024 269 6529ft 124kts
30-Jan-21 17:09 34.201069 -118.807900 258 6256ft 133kts
30-Jan-21 17:10 34.190682 -118.848240 268 5574ft 124kts
30-Jan-21 17:11 34.193652 -118.889156 266 4926ft 115kts
30-Jan-21 17:12 34.193727 -118.926005 271 4598ft 104kts
30-Jan-21 17:13 34.193145 -118.962210 270 4197ft 107kts
30-Jan-21 17:14 34.191882 -118.998035 267 3701ft 106kts
30-Jan-21 17:15 34.192662 -119.034072 272 3131ft 108kts
30-Jan-21 17:16 34.196215 -119.069065 275 2847ft 103kts
30-Jan-21 17:17 34.199956 -119.103350 273 2200ft 99kts
30-Jan-21 17:18 34.200428 -119.135613 270 2044ft 92kts
30-Jan-21 17:19 34.200247 -119.159886 270 1819ft 61kts
30-Jan-21 17:20 34.200911 -119.178579 286 869ft 54kts
30-Jan-21 17:21 34.200711 -119.196455 272 100ft 47kts
30-Jan-21 17:22 34.200022 -119.203173 182 46ft 10kts
30-Jan-21 17:23 34.199298 -119.205629 219 46ft 11kts
30-Jan-21 17:24 34.199018 -119.206850 323 46ft 0kts
30-Jan-21 17:25 34.199018 -119.206850 323 46ft 0kts
30-Jan-21 17:26 34.199018 -119.206850 323 46ft 0kts
30-Jan-21 17:27 34.199018 -119.206850 323 46ft 0kts
30-Jan-21 17:28 34.199018 -119.206850 323 46ft 0kts
30-Jan-21 17:29 34.199018 -119.206850 323 46ft 0kts
30-Jan-21 17:30 34.199018 -119.206850 323 46ft 0kts
30-Jan-21 17:31 34.199018 -119.206850 323 46ft 0kts
30-Jan-21 17:32 34.199018 -119.206850 323 46ft 0kts
30-Jan-21 17:33 34.199018 -119.206850 323 46ft 0kts
30-Jan-21 17:34 34.199018 -119.206850 323 46ft 0kts
30-Jan-21 17:35 34.199018 -119.206850 323 46ft 0kts

Navigation Log

Ident Type
Flight plan parsing failed, navigation log unavailable